createdAt,value
2019-05-18T00:00:08.678Z,82.27
2019-05-18T00:02:37.160Z,82.55
2019-05-18T00:05:08.268Z,80.74
2019-05-18T00:07:36.749Z,81.06
2019-05-18T00:10:06.464Z,80.90
2019-05-18T00:12:35.009Z,82.01
2019-05-18T00:15:04.749Z,81.56
2019-05-18T00:17:33.220Z,80.56
2019-05-18T00:20:01.731Z,80.83
2019-05-18T00:22:30.194Z,80.80
2019-05-18T00:24:58.785Z,81.42
2019-05-18T00:27:27.564Z,80.19
2019-05-18T00:29:56.054Z,80.62
2019-05-18T00:32:24.637Z,80.97
2019-05-18T00:34:53.119Z,83.56
2019-05-18T00:37:21.660Z,81.08
2019-05-18T00:39:50.184Z,81.82
2019-05-18T00:42:18.780Z,82.47
2019-05-18T00:44:47.267Z,82.29
2019-05-18T00:47:15.789Z,82.90
2019-05-18T00:49:44.351Z,83.43
2019-05-18T00:52:12.874Z,83.28
2019-05-18T00:54:41.399Z,84.23
2019-05-18T00:57:09.931Z,84.30
2019-05-18T00:59:38.564Z,84.85
2019-05-18T01:02:07.075Z,84.29
2019-05-18T01:04:35.555Z,85.06
2019-05-18T01:07:04.212Z,86.17
2019-05-18T01:09:32.731Z,84.44
2019-05-18T01:12:01.239Z,85.58
2019-05-18T01:14:29.741Z,83.74
2019-05-18T01:16:58.329Z,85.25
2019-05-18T01:19:26.818Z,85.22
2019-05-18T01:21:55.368Z,86.24
2019-05-18T01:24:23.866Z,87.10
2019-05-18T01:26:52.454Z,86.00
2019-05-18T01:29:21.109Z,85.25
2019-05-18T01:31:49.642Z,86.41
2019-05-18T01:34:18.144Z,85.96
2019-05-18T01:36:46.659Z,85.30
2019-05-18T01:39:15.148Z,86.42
2019-05-18T01:41:43.667Z,85.75
2019-05-18T01:44:12.172Z,87.51
2019-05-18T01:46:40.677Z,85.89
2019-05-18T01:49:09.145Z,87.35
2019-05-18T01:51:37.690Z,86.27
2019-05-18T01:54:06.172Z,87.97
2019-05-18T01:56:34.791Z,87.24
2019-05-18T01:59:03.269Z,86.90
2019-05-18T02:01:31.763Z,89.02
2019-05-18T02:04:00.275Z,87.48
2019-05-18T02:06:28.820Z,88.47
2019-05-18T02:08:57.351Z,88.42
2019-05-18T02:11:25.910Z,87.06
2019-05-18T02:13:54.569Z,87.99
2019-05-18T02:16:23.159Z,89.42
2019-05-18T02:18:51.810Z,89.66
2019-05-18T02:21:20.288Z,90.28
2019-05-18T02:23:48.829Z,89.58
2019-05-18T02:26:17.409Z,90.35
2019-05-18T02:28:45.984Z,90.55
2019-05-18T02:31:14.478Z,91.41
2019-05-18T02:33:43.043Z,90.85
2019-05-18T02:36:11.563Z,89.42
2019-05-18T02:38:40.278Z,89.85
2019-05-18T02:41:08.793Z,90.35
2019-05-18T02:43:37.345Z,89.85
2019-05-18T02:46:05.941Z,90.38
2019-05-18T02:48:48.840Z,91.57
2019-05-18T02:51:04.692Z,91.48
2019-05-18T02:53:33.207Z,89.21
2019-05-18T02:56:01.712Z,90.25
2019-05-18T02:58:30.243Z,90.56
2019-05-18T03:00:58.733Z,89.86
2019-05-18T03:03:27.278Z,89.94
2019-05-18T03:05:56.141Z,90.89
2019-05-18T03:08:24.787Z,90.56
2019-05-18T03:10:53.355Z,90.98
2019-05-18T03:13:21.942Z,90.65
2019-05-18T03:15:50.479Z,90.86
2019-05-18T03:18:18.998Z,92.15
2019-05-18T03:20:47.506Z,91.55
2019-05-18T03:23:16.062Z,92.50
2019-05-18T03:25:44.574Z,93.71
2019-05-18T03:28:13.638Z,92.66
2019-05-18T03:30:42.151Z,93.26
2019-05-18T03:33:10.672Z,93.35
2019-05-18T03:35:39.193Z,93.19
2019-05-18T03:38:07.770Z,92.79
2019-05-18T03:40:36.275Z,92.60
2019-05-18T03:43:04.877Z,94.06
2019-05-18T03:45:33.338Z,92.87
2019-05-18T03:48:01.927Z,93.17
2019-05-18T03:50:30.384Z,92.46
2019-05-18T03:52:58.900Z,92.72
2019-05-18T03:55:27.398Z,92.25
2019-05-18T03:57:56.021Z,92.29
2019-05-18T04:00:24.586Z,93.02
2019-05-18T04:02:53.111Z,93.10
2019-05-18T04:05:21.615Z,92.83
2019-05-18T04:07:50.164Z,93.53
2019-05-18T04:10:27.402Z,94.41
2019-05-18T04:12:56.092Z,93.56
2019-05-18T04:15:24.566Z,94.75
2019-05-18T04:17:53.068Z,94.13
2019-05-18T04:20:21.573Z,94.24
2019-05-18T04:22:50.104Z,93.57
2019-05-18T04:25:18.792Z,93.09
2019-05-18T04:27:47.284Z,92.67
2019-05-18T04:30:17.497Z,92.58
2019-05-18T04:32:46.034Z,93.44
2019-05-18T04:35:14.916Z,92.74
2019-05-18T04:37:43.455Z,92.38
2019-05-18T04:40:12.578Z,91.61
2019-05-18T04:42:41.089Z,91.77
2019-05-18T04:45:10.164Z,91.66
2019-05-18T04:47:38.653Z,91.19
2019-05-18T04:50:07.950Z,92.58
2019-05-18T04:52:36.445Z,92.28
2019-05-18T04:55:06.091Z,91.87
2019-05-18T04:57:34.683Z,92.13
2019-05-18T05:00:04.156Z,91.88
2019-05-18T05:02:32.628Z,91.30
2019-05-18T05:05:01.159Z,90.67
2019-05-18T05:07:29.697Z,90.94
2019-05-18T05:09:58.256Z,91.28
2019-05-18T05:12:26.754Z,91.38
2019-05-18T05:14:55.264Z,91.08
2019-05-18T05:17:23.760Z,90.64
2019-05-18T05:19:52.281Z,90.54
2019-05-18T05:22:20.790Z,90.09
2019-05-18T05:24:49.297Z,90.11
2019-05-18T05:27:17.832Z,89.33
2019-05-18T05:29:46.393Z,88.81
2019-05-18T05:32:14.897Z,88.84
2019-05-18T05:34:43.425Z,88.32
2019-05-18T05:37:11.917Z,87.75
2019-05-18T05:39:40.447Z,87.26
2019-05-18T05:42:08.956Z,87.01
2019-05-18T05:44:37.534Z,86.41
2019-05-18T05:47:06.017Z,86.01
2019-05-18T05:49:34.562Z,85.78
2019-05-18T05:52:03.079Z,84.85
2019-05-18T05:54:31.614Z,84.25
2019-05-18T05:57:00.167Z,83.63
2019-05-18T05:59:28.630Z,83.14
2019-05-18T06:01:57.153Z,83.10
2019-05-18T06:04:32.970Z,81.16
2019-05-18T06:07:01.397Z,80.94
2019-05-18T06:09:30.032Z,81.39
2019-05-18T06:11:58.532Z,79.16
2019-05-18T06:14:27.142Z,79.09
2019-05-18T06:16:55.613Z,80.00
2019-05-18T06:19:24.115Z,79.36
2019-05-18T06:21:52.647Z,77.24
2019-05-18T06:24:21.154Z,77.25
2019-05-18T06:26:49.683Z,78.00
2019-05-18T06:29:18.187Z,75.31
2019-05-18T06:31:46.750Z,77.19
2019-05-18T06:34:15.236Z,73.49
2019-05-18T06:36:43.789Z,71.36
2019-05-18T06:39:12.432Z,71.06
2019-05-18T06:41:40.881Z,75.17
2019-05-18T06:44:09.455Z,68.30
2019-05-18T06:46:37.963Z,72.54
2019-05-18T06:49:06.547Z,70.74
2019-05-18T06:51:35.098Z,69.66
2019-05-18T06:54:03.647Z,65.37
2019-05-18T06:56:33.286Z,65.90
2019-05-18T06:59:02.255Z,63.28
2019-05-18T07:01:30.806Z,61.85
2019-05-18T07:03:59.289Z,62.02
2019-05-18T07:06:29.243Z,61.34
2019-05-18T07:08:57.724Z,59.53
2019-05-18T07:11:26.277Z,59.57
2019-05-18T07:13:54.755Z,58.57
2019-05-18T07:16:23.295Z,60.10
2019-05-18T07:18:51.806Z,55.98
2019-05-18T07:21:22.583Z,56.55
2019-05-18T07:23:50.548Z,55.93
2019-05-18T07:26:19.127Z,56.09
2019-05-18T07:28:47.718Z,55.43
2019-05-18T07:31:16.364Z,55.77
2019-05-18T07:33:44.852Z,51.22
2019-05-18T07:36:13.362Z,56.33
2019-05-18T07:38:42.122Z,53.17
2019-05-18T07:41:10.637Z,54.49
2019-05-18T07:43:39.140Z,54.63
2019-05-18T07:46:08.841Z,51.83
2019-05-18T07:48:37.498Z,52.96
2019-05-18T07:51:08.762Z,52.52
2019-05-18T07:53:37.267Z,52.70
2019-05-18T07:56:06.025Z,48.15
2019-05-18T07:58:34.826Z,51.84
2019-05-18T08:01:03.575Z,51.90
2019-05-18T08:03:32.105Z,50.79
2019-05-18T08:06:00.710Z,49.92
2019-05-18T08:08:29.226Z,47.04
2019-05-18T08:10:57.753Z,46.32
2019-05-18T08:13:26.244Z,47.21
2019-05-18T08:15:54.744Z,47.47
2019-05-18T08:18:23.240Z,45.61
2019-05-18T08:20:51.801Z,47.95
2019-05-18T08:23:20.342Z,46.28
2019-05-18T08:25:48.879Z,46.61
2019-05-18T08:28:17.438Z,45.60
2019-05-18T08:30:45.933Z,44.32
2019-05-18T08:33:14.541Z,42.54
2019-05-18T08:35:43.091Z,44.55
2019-05-18T08:38:11.628Z,45.96
2019-05-18T08:40:40.098Z,43.94
2019-05-18T08:43:08.615Z,44.26
2019-05-18T08:45:37.099Z,44.12
2019-05-18T08:48:05.603Z,43.51
2019-05-18T08:50:34.186Z,42.87
2019-05-18T08:53:02.697Z,42.55
2019-05-18T08:55:31.204Z,42.46
2019-05-18T08:57:59.703Z,42.22
2019-05-18T09:00:28.193Z,41.33
2019-05-18T09:02:57.051Z,39.84
2019-05-18T09:05:25.557Z,39.83
2019-05-18T09:07:54.083Z,40.50
2019-05-18T09:10:22.603Z,40.44
2019-05-18T09:12:51.116Z,39.81
2019-05-18T09:15:20.024Z,40.13
2019-05-18T09:17:48.594Z,40.47
2019-05-18T09:20:17.932Z,38.50
2019-05-18T09:22:46.446Z,39.20
2019-05-18T09:25:15.491Z,38.41
2019-05-18T09:27:44.093Z,38.55
2019-05-18T09:30:13.676Z,38.76
2019-05-18T09:32:42.234Z,36.78
2019-05-18T09:35:11.359Z,35.83
2019-05-18T09:37:39.969Z,36.36
2019-05-18T09:40:08.899Z,36.13
2019-05-18T09:42:37.446Z,36.03
2019-05-18T09:45:08.473Z,35.22
2019-05-18T09:47:37.046Z,35.77
2019-05-18T09:50:09.327Z,34.80
2019-05-18T09:52:46.117Z,35.85
2019-05-18T09:55:08.685Z,35.18
2019-05-18T09:57:37.163Z,34.49
2019-05-18T10:00:08.243Z,35.83
2019-05-18T10:02:37.173Z,33.72
2019-05-18T10:05:06.322Z,35.74
2019-05-18T10:07:34.983Z,35.35
2019-05-18T10:10:10.988Z,34.32
2019-05-18T10:12:39.695Z,33.97
2019-05-18T10:15:09.701Z,34.09
2019-05-18T10:17:38.227Z,32.99
2019-05-18T10:20:10.567Z,33.53
2019-05-18T10:22:53.461Z,32.93
2019-05-18T10:25:10.003Z,32.53
2019-05-18T10:27:38.641Z,33.77
2019-05-18T10:30:08.229Z,31.77
2019-05-18T10:32:36.818Z,31.52
2019-05-18T10:35:07.725Z,32.18
2019-05-18T10:37:36.264Z,32.44
2019-05-18T10:40:07.880Z,32.73
2019-05-18T10:42:36.470Z,32.97
2019-05-18T10:45:09.044Z,33.85
2019-05-18T10:47:37.540Z,34.20
2019-05-18T10:50:09.106Z,35.56
2019-05-18T10:52:37.620Z,36.18
2019-05-18T10:55:08.061Z,35.25
2019-05-18T10:57:36.574Z,36.30
2019-05-18T11:00:07.527Z,36.99
2019-05-18T11:02:36.197Z,37.46
2019-05-18T11:05:10.051Z,37.54
2019-05-18T11:07:38.606Z,37.71
2019-05-18T11:10:09.482Z,37.47
2019-05-18T11:12:38.076Z,38.53
2019-05-18T11:15:08.302Z,39.32
2019-05-18T11:17:36.804Z,38.75
2019-05-18T11:20:10.261Z,38.60
2019-05-18T11:22:38.955Z,39.11
2019-05-18T11:25:08.472Z,39.45
2019-05-18T11:27:37.022Z,39.31
2019-05-18T11:30:09.631Z,40.27
2019-05-18T11:32:38.510Z,39.65
2019-05-18T11:35:08.260Z,39.72
2019-05-18T11:37:36.856Z,39.20
2019-05-18T11:40:09.357Z,39.56
2019-05-18T11:42:38.120Z,39.15
2019-05-18T11:45:08.918Z,39.60
2019-05-18T11:47:37.637Z,39.30
2019-05-18T11:50:09.003Z,39.92
2019-05-18T11:52:38.538Z,39.54
2019-05-18T11:55:08.720Z,38.87
2019-05-18T11:57:37.328Z,39.48
2019-05-18T12:00:11.716Z,39.37
2019-05-18T12:02:40.208Z,39.17
2019-05-18T12:05:11.986Z,39.33
2019-05-18T12:07:40.580Z,38.44
2019-05-18T12:10:09.872Z,38.93
2019-05-18T12:12:38.743Z,38.97
2019-05-18T12:15:09.743Z,39.41
2019-05-18T12:17:41.083Z,39.23
2019-05-18T12:20:10.902Z,39.33
2019-05-18T12:22:39.401Z,39.55
2019-05-18T12:25:09.362Z,39.49
2019-05-18T12:27:37.985Z,39.50
2019-05-18T12:30:11.045Z,39.39
2019-05-18T12:32:39.713Z,39.98
2019-05-18T12:35:10.547Z,39.94
2019-05-18T12:37:39.135Z,40.01
2019-05-18T12:40:09.239Z,39.22
2019-05-18T12:42:37.845Z,38.94
2019-05-18T12:45:08.034Z,38.56
2019-05-18T12:47:36.689Z,38.57
2019-05-18T12:50:07.083Z,39.21
2019-05-18T12:52:35.534Z,38.73
2019-05-18T12:55:06.082Z,38.65
2019-05-18T12:57:35.098Z,38.29
2019-05-18T13:00:05.433Z,38.00
2019-05-18T13:02:34.133Z,37.75
2019-05-18T13:05:02.664Z,37.85
2019-05-18T13:07:31.928Z,37.93
2019-05-18T13:10:00.543Z,37.56
2019-05-18T13:12:29.121Z,37.49
2019-05-18T13:14:57.637Z,37.82
2019-05-18T13:17:26.139Z,37.57
2019-05-18T13:19:54.633Z,37.95
2019-05-18T13:22:23.217Z,37.68
2019-05-18T13:24:52.387Z,37.51
2019-05-18T13:27:21.035Z,37.20
2019-05-18T13:29:49.585Z,37.50
2019-05-18T13:32:18.110Z,37.80
2019-05-18T13:34:46.557Z,37.74
2019-05-18T13:37:15.071Z,37.52
2019-05-18T13:39:43.588Z,37.27
2019-05-18T13:42:12.112Z,37.00
2019-05-18T13:44:40.687Z,37.04
2019-05-18T13:47:09.171Z,36.87
2019-05-18T13:49:37.745Z,36.82
2019-05-18T13:52:06.422Z,37.17
2019-05-18T13:54:34.963Z,37.06
2019-05-18T13:57:03.608Z,37.03
2019-05-18T13:59:32.190Z,36.63
2019-05-18T14:02:00.710Z,37.36
2019-05-18T14:04:29.221Z,37.23
2019-05-18T14:06:57.767Z,37.26
2019-05-18T14:09:28.064Z,35.99
2019-05-18T14:11:56.569Z,36.97
2019-05-18T14:14:25.108Z,36.69
2019-05-18T14:16:53.638Z,37.16
2019-05-18T14:19:22.164Z,37.14
2019-05-18T14:21:50.764Z,37.08
2019-05-18T14:24:19.260Z,36.73
2019-05-18T14:26:47.796Z,37.02
2019-05-18T14:29:16.357Z,37.39
2019-05-18T14:31:47.749Z,37.17
2019-05-18T14:34:16.258Z,37.15
2019-05-18T14:36:44.866Z,37.39
2019-05-18T14:39:13.356Z,37.42
2019-05-18T14:41:42.552Z,37.36
2019-05-18T14:44:12.945Z,37.61
2019-05-18T14:46:41.462Z,37.48
2019-05-18T14:49:09.989Z,37.34
2019-05-18T14:51:38.527Z,37.41
2019-05-18T14:54:06.982Z,36.74
2019-05-18T14:56:35.549Z,37.41
2019-05-18T14:59:04.053Z,37.13
2019-05-18T15:01:32.594Z,37.49
2019-05-18T15:04:01.091Z,37.38
2019-05-18T15:06:29.765Z,37.02
2019-05-18T15:08:58.328Z,36.70
2019-05-18T15:11:26.891Z,36.74
2019-05-18T15:13:55.494Z,37.08
2019-05-18T15:16:24.010Z,36.93
2019-05-18T15:18:52.538Z,36.78
2019-05-18T15:21:21.097Z,36.83
2019-05-18T15:23:49.611Z,37.32
2019-05-18T15:26:18.111Z,37.12
2019-05-18T15:28:46.701Z,37.17
2019-05-18T15:31:15.334Z,37.65
2019-05-18T15:33:43.862Z,37.51
2019-05-18T15:36:12.451Z,37.50
2019-05-18T15:38:40.993Z,37.38
2019-05-18T15:41:09.562Z,37.56
2019-05-18T15:43:38.133Z,37.47
2019-05-18T15:46:07.257Z,37.18
2019-05-18T15:48:35.879Z,37.07
2019-05-18T15:51:04.438Z,36.27
2019-05-18T15:53:32.960Z,36.85
2019-05-18T15:56:05.763Z,36.61
2019-05-18T15:58:31.777Z,36.45
2019-05-18T16:01:00.283Z,36.55
2019-05-18T16:03:28.832Z,36.88
2019-05-18T16:05:57.419Z,36.68
2019-05-18T16:08:25.886Z,36.60
2019-05-18T16:10:57.131Z,36.29
2019-05-18T16:13:24.727Z,36.69
2019-05-18T16:15:53.290Z,36.88
2019-05-18T16:18:21.870Z,36.91
2019-05-18T16:20:50.321Z,37.24
2019-05-18T16:23:18.893Z,37.16
2019-05-18T16:25:47.362Z,37.39
2019-05-18T16:28:15.929Z,37.54
2019-05-18T16:30:44.511Z,37.35
2019-05-18T16:33:13.067Z,37.48
2019-05-18T16:35:41.561Z,37.42
2019-05-18T16:38:10.131Z,37.59
2019-05-18T16:40:38.697Z,37.16
2019-05-18T16:43:07.170Z,37.22
2019-05-18T16:45:35.831Z,37.56
2019-05-18T16:48:04.432Z,37.45
2019-05-18T16:50:33.191Z,37.49
2019-05-18T16:53:01.963Z,37.57
2019-05-18T16:55:30.876Z,37.91
2019-05-18T16:57:59.503Z,37.90
2019-05-18T17:00:28.068Z,37.89
2019-05-18T17:02:56.583Z,38.33
2019-05-18T17:05:25.138Z,38.36
2019-05-18T17:07:53.641Z,38.24
2019-05-18T17:10:22.430Z,38.11
2019-05-18T17:12:51.031Z,38.24
2019-05-18T17:15:20.391Z,38.21
2019-05-18T17:17:49.025Z,38.29
2019-05-18T17:20:18.179Z,38.32
2019-05-18T17:22:46.737Z,38.30
2019-05-18T17:25:15.793Z,38.44
2019-05-18T17:27:44.319Z,38.51
2019-05-18T17:30:13.241Z,38.31
2019-05-18T17:32:41.815Z,38.45
2019-05-18T17:35:10.943Z,38.68
2019-05-18T17:37:39.493Z,38.76
2019-05-18T17:40:08.532Z,38.91
2019-05-18T17:42:37.127Z,38.99
2019-05-18T17:45:08.190Z,39.14
2019-05-18T17:47:36.861Z,39.28
2019-05-18T17:50:07.300Z,39.38
2019-05-18T17:52:35.834Z,39.60
2019-05-18T17:55:05.823Z,39.63
2019-05-18T17:57:34.316Z,39.70
2019-05-18T18:00:03.000Z,40.13
2019-05-18T18:02:31.488Z,40.25
2019-05-18T18:04:59.996Z,40.39
2019-05-18T18:07:28.475Z,40.45
2019-05-18T18:09:56.951Z,40.51
2019-05-18T18:12:25.427Z,40.62
2019-05-18T18:14:54.137Z,40.99
2019-05-18T18:17:22.605Z,41.29
2019-05-18T18:19:51.122Z,41.01
2019-05-18T18:22:19.619Z,41.35
2019-05-18T18:24:48.128Z,41.54
2019-05-18T18:27:24.854Z,41.87
2019-05-18T18:29:46.903Z,42.04
2019-05-18T18:32:15.404Z,42.54
2019-05-18T18:34:44.051Z,43.47
2019-05-18T18:37:12.623Z,43.01
2019-05-18T18:39:41.159Z,43.41
2019-05-18T18:42:09.613Z,43.93
2019-05-18T18:44:38.156Z,43.67
2019-05-18T18:47:06.683Z,43.79
2019-05-18T18:49:35.368Z,44.04
2019-05-18T18:52:03.944Z,44.24
2019-05-18T18:54:32.539Z,44.65
2019-05-18T18:57:01.287Z,44.63
2019-05-18T18:59:29.769Z,45.03
2019-05-18T19:01:58.324Z,45.23
2019-05-18T19:04:26.804Z,45.55
2019-05-18T19:06:55.302Z,45.73
2019-05-18T19:09:23.856Z,45.84
2019-05-18T19:11:52.369Z,46.23
2019-05-18T19:14:21.010Z,47.19
2019-05-18T19:16:49.480Z,47.19
2019-05-18T19:19:17.990Z,47.38
2019-05-18T19:21:46.475Z,47.45
2019-05-18T19:24:15.020Z,47.81
2019-05-18T19:26:43.566Z,48.71
2019-05-18T19:29:12.097Z,48.97
2019-05-18T19:31:40.666Z,49.15
2019-05-18T19:34:09.125Z,50.67
2019-05-18T19:36:37.624Z,49.88
2019-05-18T19:39:06.869Z,49.25
2019-05-18T19:41:35.391Z,50.28
2019-05-18T19:44:03.886Z,50.78
2019-05-18T19:46:32.393Z,50.74
2019-05-18T19:49:00.872Z,51.00
2019-05-18T19:51:29.442Z,51.10
2019-05-18T19:53:57.991Z,51.45
2019-05-18T19:56:26.863Z,54.57
2019-05-18T19:58:55.342Z,52.79
2019-05-18T20:01:23.845Z,52.82
2019-05-18T20:03:52.320Z,52.08
2019-05-18T20:06:20.829Z,52.46
2019-05-18T20:08:52.376Z,53.32
2019-05-18T20:11:22.519Z,53.36
2019-05-18T20:13:55.472Z,53.84
2019-05-18T20:16:23.975Z,53.40
2019-05-18T20:18:52.509Z,54.07
2019-05-18T20:21:21.249Z,54.28
2019-05-18T20:23:49.769Z,54.39
2019-05-18T20:26:18.246Z,55.00
2019-05-18T20:28:46.719Z,54.93
2019-05-18T20:31:15.231Z,54.47
2019-05-18T20:33:43.741Z,54.84
2019-05-18T20:36:12.215Z,55.29
2019-05-18T20:38:40.729Z,56.36
2019-05-18T20:41:09.206Z,56.33
2019-05-18T20:43:37.906Z,56.11
2019-05-18T20:46:06.448Z,56.86
2019-05-18T20:48:34.970Z,55.77
2019-05-18T20:51:03.441Z,56.25
2019-05-18T20:53:32.004Z,55.71
2019-05-18T20:56:00.496Z,55.86
2019-05-18T20:58:39.339Z,56.28
2019-05-18T21:00:59.270Z,56.40
2019-05-18T21:03:27.781Z,56.91
2019-05-18T21:05:56.280Z,57.23
2019-05-18T21:08:24.809Z,57.13
2019-05-18T21:10:53.292Z,57.24
2019-05-18T21:13:21.790Z,57.88
2019-05-18T21:15:50.259Z,58.37
2019-05-18T21:18:18.771Z,58.59
2019-05-18T21:20:47.250Z,59.82
2019-05-18T21:23:15.754Z,58.28
2019-05-18T21:25:44.240Z,58.43
2019-05-18T21:28:12.731Z,58.65
2019-05-18T21:30:41.195Z,58.77
2019-05-18T21:33:09.724Z,58.84
2019-05-18T21:35:38.276Z,58.87
2019-05-18T21:38:06.791Z,59.62
2019-05-18T21:40:35.245Z,59.19
2019-05-18T21:43:03.761Z,59.57
2019-05-18T21:45:32.754Z,59.43
2019-05-18T21:48:01.332Z,59.74
2019-05-18T21:50:29.817Z,58.99
2019-05-18T21:52:58.325Z,59.66
2019-05-18T21:55:26.813Z,59.25
2019-05-18T21:57:55.302Z,59.33
2019-05-18T22:00:24.497Z,59.95
2019-05-18T22:02:53.081Z,60.15
2019-05-18T22:05:21.558Z,61.08
2019-05-18T22:07:50.065Z,61.49
2019-05-18T22:10:25.825Z,61.50
2019-05-18T22:12:48.981Z,61.36
2019-05-18T22:15:17.706Z,61.15
2019-05-18T22:18:04.271Z,61.23
2019-05-18T22:20:34.522Z,60.51
2019-05-18T22:23:03.546Z,61.26
2019-05-18T22:25:32.800Z,61.50
2019-05-18T22:28:01.598Z,61.98
2019-05-18T22:30:30.079Z,62.22
2019-05-18T22:32:58.628Z,62.56
2019-05-18T22:35:27.115Z,62.32
2019-05-18T22:37:55.678Z,63.04
2019-05-18T22:40:24.183Z,62.65
2019-05-18T22:42:52.663Z,63.12
2019-05-18T22:45:21.189Z,63.30
2019-05-18T22:47:49.650Z,64.98
2019-05-18T22:50:20.148Z,63.23
2019-05-18T22:52:51.316Z,63.77
2019-05-18T22:55:19.992Z,64.58
2019-05-18T22:57:50.233Z,63.57
2019-05-18T23:00:19.229Z,63.83
2019-05-18T23:02:47.720Z,63.76
2019-05-18T23:05:16.226Z,63.91
2019-05-18T23:07:44.769Z,63.52
2019-05-18T23:10:14.168Z,63.08
2019-05-18T23:12:42.659Z,63.71
2019-05-18T23:15:11.598Z,64.87
2019-05-18T23:17:40.080Z,64.75
2019-05-18T23:20:08.928Z,65.31
2019-05-18T23:22:37.507Z,63.85
2019-05-18T23:25:10.527Z,63.74
2019-05-18T23:27:38.979Z,63.50
2019-05-18T23:30:08.611Z,64.42
2019-05-18T23:32:37.868Z,64.20
2019-05-18T23:35:06.929Z,63.83
2019-05-18T23:37:35.419Z,63.93
2019-05-18T23:40:05.170Z,64.07
2019-05-18T23:42:33.709Z,63.71
2019-05-18T23:45:02.229Z,63.77
2019-05-18T23:47:30.711Z,64.23
2019-05-18T23:49:59.208Z,65.47
2019-05-18T23:52:27.684Z,64.98
2019-05-18T23:54:56.196Z,67.09
2019-05-18T23:57:24.702Z,65.97
2019-05-18T23:59:53.232Z,66.41
